<?xml version="1.0" encoding="UTF-8" standalone="no" ?><gpx xmlns="http://www.topografix.com/GPX/1/1" xmlns:gpxx="http://www.garmin.com/xmlschemas/GpxExtensions/v3" xmlns:wptx1="http://www.garmin.com/xmlschemas/WaypointExtension/v1" xmlns:gpxtpx="http://www.garmin.com/xmlschemas/TrackPointExtension/v1" creator="GuideVTT.com" version="1.1" xmlns:xsi="http://www.w3.org/2001/XMLSchema-instance" xsi:schemaLocation="http://www.topografix.com/GPX/1/1 http://www.topografix.com/GPX/1/1/gpx.xsd http://www.garmin.com/xmlschemas/GpxExtensions/v3 http://www8.garmin.com/xmlschemas/GpxExtensionsv3.xsd http://www.garmin.com/xmlschemas/WaypointExtension/v1 http://www8.garmin.com/xmlschemas/WaypointExtensionv1.xsd http://www.garmin.com/xmlschemas/TrackPointExtension/v1 http://www.garmin.com/xmlschemas/TrackPointExtensionv1.xsd">
<metadata><link href="http://www.garmin.com"><text>Garmin International</text></link><time>2013-06-22T15:13:50Z</time></metadata>
<trk><name>parcours13.gpx</name><extensions><gpxx:TrackExtension><gpxx:DisplayColor>Cyan</gpxx:DisplayColor></gpxx:TrackExtension></extensions><trkseg>
<trkpt lat="46.25641670" lon="7.52683330"><ele>1313</ele><time>2003-07-20T10:59:37Z</time></trkpt>
<trkpt lat="46.25656670" lon="7.52940000"><ele>1320</ele><time>2003-07-20T11:01:04Z</time></trkpt>
<trkpt lat="46.25535000" lon="7.52931670"><ele>1323</ele><time>2003-07-20T11:01:55Z</time></trkpt>
<trkpt lat="46.25506670" lon="7.53008330"><ele>1334</ele><time>2003-07-20T11:02:29Z</time></trkpt>
<trkpt lat="46.25486670" lon="7.53020000"><ele>1337</ele><time>2003-07-20T11:02:42Z</time></trkpt>
<trkpt lat="46.25395000" lon="7.52933330"><ele>1352</ele><time>2003-07-20T11:03:55Z</time></trkpt>
<trkpt lat="46.25373330" lon="7.52855000"><ele>1364</ele><time>2003-07-20T11:04:36Z</time></trkpt>
<trkpt lat="46.25298330" lon="7.52825000"><ele>1371</ele><time>2003-07-20T11:05:25Z</time></trkpt>
<trkpt lat="46.25293330" lon="7.52766670"><ele>1374</ele><time>2003-07-20T11:05:51Z</time></trkpt>
<trkpt lat="46.25231670" lon="7.52745000"><ele>1382</ele><time>2003-07-20T11:06:34Z</time></trkpt>
<trkpt lat="46.25186670" lon="7.52476670"><ele>1407</ele><time>2003-07-20T11:08:41Z</time></trkpt>
<trkpt lat="46.25113330" lon="7.52295000"><ele>1433</ele><time>2003-07-20T11:10:31Z</time></trkpt>
<trkpt lat="46.25011670" lon="7.52243330"><ele>1439</ele><time>2003-07-20T11:11:51Z</time></trkpt>
<trkpt lat="46.24886670" lon="7.52251670"><ele>1446</ele><time>2003-07-20T11:13:28Z</time></trkpt>
<trkpt lat="46.24821670" lon="7.52208330"><ele>1456</ele><time>2003-07-20T11:14:30Z</time></trkpt>
<trkpt lat="46.24736670" lon="7.52200000"><ele>1457</ele><time>2003-07-20T11:15:47Z</time></trkpt>
<trkpt lat="46.24771670" lon="7.52191670"><ele>1541</ele><time>2003-07-20T11:20:38Z</time></trkpt>
<trkpt lat="46.24830000" lon="7.52231670"><ele>1541</ele><time>2003-07-20T11:21:19Z</time></trkpt>
<trkpt lat="46.24863330" lon="7.52318330"><ele>1529</ele><time>2003-07-20T11:22:09Z</time></trkpt>
<trkpt lat="46.24910000" lon="7.52340000"><ele>1527</ele><time>2003-07-20T11:22:39Z</time></trkpt>
<trkpt lat="46.24943330" lon="7.52415000"><ele>1520</ele><time>2003-07-20T11:23:07Z</time></trkpt>
<trkpt lat="46.24915000" lon="7.52663330"><ele>1519</ele><time>2003-07-20T11:24:22Z</time></trkpt>
<trkpt lat="46.24901670" lon="7.53058330"><ele>1531</ele><time>2003-07-20T11:26:28Z</time></trkpt>
<trkpt lat="46.24863330" lon="7.53231670"><ele>1535</ele><time>2003-07-20T11:27:22Z</time></trkpt>
<trkpt lat="46.24836670" lon="7.53470000"><ele>1545</ele><time>2003-07-20T11:28:39Z</time></trkpt>
<trkpt lat="46.24803330" lon="7.53586670"><ele>1549</ele><time>2003-07-20T11:29:14Z</time></trkpt>
<trkpt lat="46.24805000" lon="7.53665000"><ele>1554</ele><time>2003-07-20T11:29:44Z</time></trkpt>
<trkpt lat="46.24740000" lon="7.53691670"><ele>1560</ele><time>2003-07-20T11:30:16Z</time></trkpt>
<trkpt lat="46.24695000" lon="7.53738330"><ele>1561</ele><time>2003-07-20T11:30:43Z</time></trkpt>
<trkpt lat="46.24581670" lon="7.53760000"><ele>1568</ele><time>2003-07-20T11:31:34Z</time></trkpt>
<trkpt lat="46.24501670" lon="7.53858330"><ele>1570</ele><time>2003-07-20T11:32:09Z</time></trkpt>
<trkpt lat="46.24435000" lon="7.53895000"><ele>1573</ele><time>2003-07-20T11:32:37Z</time></trkpt>
<trkpt lat="46.24281670" lon="7.53860000"><ele>1580</ele><time>2003-07-20T11:33:42Z</time></trkpt>
<trkpt lat="46.24183330" lon="7.53810000"><ele>1584</ele><time>2003-07-20T11:34:12Z</time></trkpt>
<trkpt lat="46.24170000" lon="7.53830000"><ele>1584</ele><time>2003-07-20T11:34:18Z</time></trkpt>
<trkpt lat="46.24131670" lon="7.53840000"><ele>1584</ele><time>2003-07-20T11:34:29Z</time></trkpt>
<trkpt lat="46.23960000" lon="7.53850000"><ele>1585</ele><time>2003-07-20T11:35:19Z</time></trkpt>
<trkpt lat="46.23910000" lon="7.53900000"><ele>1585</ele><time>2003-07-20T11:35:38Z</time></trkpt>
<trkpt lat="46.23868330" lon="7.53996670"><ele>1585</ele><time>2003-07-20T11:36:03Z</time></trkpt>
<trkpt lat="46.23860000" lon="7.54173330"><ele>1588</ele><time>2003-07-20T11:36:42Z</time></trkpt>
<trkpt lat="46.23840000" lon="7.54218330"><ele>1589</ele><time>2003-07-20T11:36:57Z</time></trkpt>
<trkpt lat="46.23873330" lon="7.54463330"><ele>1590</ele><time>2003-07-20T11:38:18Z</time></trkpt>
<trkpt lat="46.23910000" lon="7.54565000"><ele>1602</ele><time>2003-07-20T11:39:16Z</time></trkpt>
<trkpt lat="46.23975000" lon="7.54635000"><ele>1603</ele><time>2003-07-20T11:39:43Z</time></trkpt>
<trkpt lat="46.24121670" lon="7.54668330"><ele>1610</ele><time>2003-07-20T11:40:32Z</time></trkpt>
<trkpt lat="46.24156670" lon="7.54698330"><ele>1614</ele><time>2003-07-20T11:40:54Z</time></trkpt>
<trkpt lat="46.24188330" lon="7.54851670"><ele>1620</ele><time>2003-07-20T11:41:42Z</time></trkpt>
<trkpt lat="46.24185000" lon="7.54975000"><ele>1627</ele><time>2003-07-20T11:42:16Z</time></trkpt>
<trkpt lat="46.24245000" lon="7.55066670"><ele>1630</ele><time>2003-07-20T11:42:59Z</time></trkpt>
<trkpt lat="46.24245000" lon="7.55125000"><ele>1631</ele><time>2003-07-20T11:43:16Z</time></trkpt>
<trkpt lat="46.24223330" lon="7.55225000"><ele>1636</ele><time>2003-07-20T11:43:51Z</time></trkpt>
<trkpt lat="46.24236670" lon="7.55283330"><ele>1640</ele><time>2003-07-20T11:44:13Z</time></trkpt>
<trkpt lat="46.24120000" lon="7.55351670"><ele>1644</ele><time>2003-07-20T11:44:59Z</time></trkpt>
<trkpt lat="46.24058330" lon="7.55410000"><ele>1648</ele><time>2003-07-20T11:45:17Z</time></trkpt>
<trkpt lat="46.23881670" lon="7.55625000"><ele>1656</ele><time>2003-07-20T11:46:27Z</time></trkpt>
<trkpt lat="46.23618330" lon="7.55670000"><ele>1660</ele><time>2003-07-20T11:47:20Z</time></trkpt>
<trkpt lat="46.23548330" lon="7.55610000"><ele>1654</ele><time>2003-07-20T11:47:54Z</time></trkpt>
<trkpt lat="46.23548330" lon="7.55625000"><ele>1668</ele><time>2003-07-20T11:50:31Z</time></trkpt>
<trkpt lat="46.23313330" lon="7.55430000"><ele>1698</ele><time>2003-07-20T11:54:41Z</time></trkpt>
<trkpt lat="46.23253330" lon="7.55311670"><ele>1708</ele><time>2003-07-20T11:55:29Z</time></trkpt>
<trkpt lat="46.23253330" lon="7.55228330"><ele>1706</ele><time>2003-07-20T11:55:44Z</time></trkpt>
<trkpt lat="46.23230000" lon="7.55163330"><ele>1706</ele><time>2003-07-20T11:55:59Z</time></trkpt>
<trkpt lat="46.23201670" lon="7.55143330"><ele>1705</ele><time>2003-07-20T11:56:12Z</time></trkpt>
<trkpt lat="46.23075000" lon="7.55215000"><ele>1709</ele><time>2003-07-20T11:56:59Z</time></trkpt>
<trkpt lat="46.23000000" lon="7.55163330"><ele>1711</ele><time>2003-07-20T11:57:25Z</time></trkpt>
<trkpt lat="46.22953330" lon="7.55208330"><ele>1714</ele><time>2003-07-20T11:57:42Z</time></trkpt>
<trkpt lat="46.22798330" lon="7.55221670"><ele>1713</ele><time>2003-07-20T11:58:12Z</time></trkpt>
<trkpt lat="46.22781670" lon="7.55215000"><ele>1712</ele><time>2003-07-20T11:58:24Z</time></trkpt>
<trkpt lat="46.22745000" lon="7.55156670"><ele>1714</ele><time>2003-07-20T11:58:53Z</time></trkpt>
<trkpt lat="46.22706670" lon="7.55138330"><ele>1715</ele><time>2003-07-20T11:59:18Z</time></trkpt>
<trkpt lat="46.22665000" lon="7.55165000"><ele>1717</ele><time>2003-07-20T11:59:44Z</time></trkpt>
<trkpt lat="46.22650000" lon="7.55275000"><ele>1721</ele><time>2003-07-20T12:12:13Z</time></trkpt>
<trkpt lat="46.22601670" lon="7.55445000"><ele>1738</ele><time>2003-07-20T12:39:07Z</time></trkpt>
<trkpt lat="46.22598330" lon="7.55773330"><ele>1730</ele><time>2003-07-20T12:39:54Z</time></trkpt>
<trkpt lat="46.22455000" lon="7.55825000"><ele>1711</ele><time>2003-07-20T12:40:31Z</time></trkpt>
<trkpt lat="46.22455000" lon="7.55856670"><ele>1710</ele><time>2003-07-20T12:40:38Z</time></trkpt>
<trkpt lat="46.22430000" lon="7.55915000"><ele>1708</ele><time>2003-07-20T12:40:52Z</time></trkpt>
<trkpt lat="46.22400000" lon="7.55968330"><ele>1705</ele><time>2003-07-20T12:41:04Z</time></trkpt>
<trkpt lat="46.22370000" lon="7.55990000"><ele>1702</ele><time>2003-07-20T12:41:11Z</time></trkpt>
<trkpt lat="46.22320000" lon="7.55983330"><ele>1698</ele><time>2003-07-20T12:41:22Z</time></trkpt>
<trkpt lat="46.22300000" lon="7.55991670"><ele>1696</ele><time>2003-07-20T12:41:27Z</time></trkpt>
<trkpt lat="46.22246670" lon="7.56060000"><ele>1690</ele><time>2003-07-20T12:41:44Z</time></trkpt>
<trkpt lat="46.22186670" lon="7.56058330"><ele>1681</ele><time>2003-07-20T12:41:57Z</time></trkpt>
<trkpt lat="46.22120000" lon="7.56090000"><ele>1674</ele><time>2003-07-20T12:42:12Z</time></trkpt>
<trkpt lat="46.22036670" lon="7.56013330"><ele>1666</ele><time>2003-07-20T12:42:34Z</time></trkpt>
<trkpt lat="46.21968330" lon="7.56001670"><ele>1662</ele><time>2003-07-20T12:42:47Z</time></trkpt>
<trkpt lat="46.21850000" lon="7.55918330"><ele>1658</ele><time>2003-07-20T12:43:08Z</time></trkpt>
<trkpt lat="46.21825000" lon="7.55926670"><ele>1657</ele><time>2003-07-20T12:43:14Z</time></trkpt>
<trkpt lat="46.21791670" lon="7.55991670"><ele>1656</ele><time>2003-07-20T12:43:30Z</time></trkpt>
<trkpt lat="46.21745000" lon="7.56016670"><ele>1656</ele><time>2003-07-20T12:43:52Z</time></trkpt>
<trkpt lat="46.21746670" lon="7.56056670"><ele>1660</ele><time>2003-07-20T12:44:08Z</time></trkpt>
<trkpt lat="46.21650000" lon="7.55978330"><ele>1668</ele><time>2003-07-20T12:44:57Z</time></trkpt>
<trkpt lat="46.21568330" lon="7.55960000"><ele>1675</ele><time>2003-07-20T12:45:42Z</time></trkpt>
<trkpt lat="46.21581670" lon="7.55998330"><ele>1676</ele><time>2003-07-20T12:46:36Z</time></trkpt>
<trkpt lat="46.21578330" lon="7.56046670"><ele>1676</ele><time>2003-07-20T12:46:43Z</time></trkpt>
<trkpt lat="46.21496670" lon="7.56161670"><ele>1677</ele><time>2003-07-20T12:47:05Z</time></trkpt>
<trkpt lat="46.21470000" lon="7.56388330"><ele>1676</ele><time>2003-07-20T12:47:09Z</time></trkpt>
<trkpt lat="46.21418330" lon="7.56433330"><ele>1673</ele><time>2003-07-20T12:47:21Z</time></trkpt>
<trkpt lat="46.21366670" lon="7.56606670"><ele>1665</ele><time>2003-07-20T12:48:11Z</time></trkpt>
<trkpt lat="46.21258330" lon="7.56693330"><ele>1664</ele><time>2003-07-20T12:49:14Z</time></trkpt>
<trkpt lat="46.21116670" lon="7.56860000"><ele>1671</ele><time>2003-07-20T12:50:04Z</time></trkpt>
<trkpt lat="46.21080000" lon="7.56865000"><ele>1673</ele><time>2003-07-20T12:50:17Z</time></trkpt>
<trkpt lat="46.20985000" lon="7.56960000"><ele>1675</ele><time>2003-07-20T12:50:53Z</time></trkpt>
<trkpt lat="46.20878330" lon="7.57020000"><ele>1673</ele><time>2003-07-20T12:51:27Z</time></trkpt>
<trkpt lat="46.20855000" lon="7.57056670"><ele>1673</ele><time>2003-07-20T12:51:35Z</time></trkpt>
<trkpt lat="46.20773330" lon="7.56978330"><ele>1670</ele><time>2003-07-20T12:51:57Z</time></trkpt>
<trkpt lat="46.20685000" lon="7.56938330"><ele>1668</ele><time>2003-07-20T12:52:17Z</time></trkpt>
<trkpt lat="46.20668330" lon="7.57248330"><ele>1668</ele><time>2003-07-20T12:52:54Z</time></trkpt>
<trkpt lat="46.20590000" lon="7.57270000"><ele>1662</ele><time>2003-07-20T12:56:11Z</time></trkpt>
<trkpt lat="46.20468330" lon="7.57338330"><ele>1663</ele><time>2003-07-20T12:56:59Z</time></trkpt>
<trkpt lat="46.20373330" lon="7.57253330"><ele>1657</ele><time>2003-07-20T12:57:25Z</time></trkpt>
<trkpt lat="46.20336670" lon="7.57258330"><ele>1655</ele><time>2003-07-20T12:57:32Z</time></trkpt>
<trkpt lat="46.20215000" lon="7.57380000"><ele>1651</ele><time>2003-07-20T12:58:00Z</time></trkpt>
<trkpt lat="46.20126670" lon="7.57431670"><ele>1648</ele><time>2003-07-20T12:58:17Z</time></trkpt>
<trkpt lat="46.20075000" lon="7.57411670"><ele>1644</ele><time>2003-07-20T12:58:31Z</time></trkpt>
<trkpt lat="46.20063330" lon="7.57415000"><ele>1643</ele><time>2003-07-20T12:58:34Z</time></trkpt>
<trkpt lat="46.20045000" lon="7.57456670"><ele>1643</ele><time>2003-07-20T12:58:42Z</time></trkpt>
<trkpt lat="46.19996670" lon="7.57448330"><ele>1641</ele><time>2003-07-20T12:58:52Z</time></trkpt>
<trkpt lat="46.19900000" lon="7.57546670"><ele>1631</ele><time>2003-07-20T12:59:31Z</time></trkpt>
<trkpt lat="46.19908330" lon="7.57553330"><ele>1629</ele><time>2003-07-20T13:01:03Z</time></trkpt>
<trkpt lat="46.19855000" lon="7.57498330"><ele>1622</ele><time>2003-07-20T13:02:29Z</time></trkpt>
<trkpt lat="46.19826670" lon="7.57493330"><ele>1621</ele><time>2003-07-20T13:02:35Z</time></trkpt>
<trkpt lat="46.19811670" lon="7.57460000"><ele>1621</ele><time>2003-07-20T13:02:42Z</time></trkpt>
<trkpt lat="46.19641670" lon="7.57425000"><ele>1619</ele><time>2003-07-20T13:03:12Z</time></trkpt>
<trkpt lat="46.19590000" lon="7.57493330"><ele>1621</ele><time>2003-07-20T13:03:29Z</time></trkpt>
<trkpt lat="46.19483330" lon="7.57521670"><ele>1609</ele><time>2003-07-20T13:03:50Z</time></trkpt>
<trkpt lat="46.19466670" lon="7.57546670"><ele>1609</ele><time>2003-07-20T13:03:57Z</time></trkpt>
<trkpt lat="46.19456670" lon="7.57805000"><ele>1609</ele><time>2003-07-20T13:04:26Z</time></trkpt>
<trkpt lat="46.19438330" lon="7.57833330"><ele>1609</ele><time>2003-07-20T13:04:32Z</time></trkpt>
<trkpt lat="46.19216670" lon="7.57910000"><ele>1589</ele><time>2003-07-20T13:05:24Z</time></trkpt>
<trkpt lat="46.19045000" lon="7.57925000"><ele>1586</ele><time>2003-07-20T13:06:07Z</time></trkpt>
<trkpt lat="46.18901670" lon="7.57975000"><ele>1589</ele><time>2003-07-20T13:06:39Z</time></trkpt>
<trkpt lat="46.18676670" lon="7.57965000"><ele>1590</ele><time>2003-07-20T13:07:39Z</time></trkpt>
<trkpt lat="46.18643330" lon="7.57995000"><ele>1591</ele><time>2003-07-20T13:07:49Z</time></trkpt>
<trkpt lat="46.18595000" lon="7.57991670"><ele>1591</ele><time>2003-07-20T13:08:01Z</time></trkpt>
<trkpt lat="46.18506670" lon="7.57931670"><ele>1590</ele><time>2003-07-20T13:08:35Z</time></trkpt>
<trkpt lat="46.18446670" lon="7.57845000"><ele>1595</ele><time>2003-07-20T13:09:06Z</time></trkpt>
<trkpt lat="46.18370000" lon="7.57793330"><ele>1595</ele><time>2003-07-20T13:09:29Z</time></trkpt>
<trkpt lat="46.18241670" lon="7.57646670"><ele>1598</ele><time>2003-07-20T13:10:12Z</time></trkpt>
<trkpt lat="46.18160000" lon="7.57571670"><ele>1600</ele><time>2003-07-20T13:10:37Z</time></trkpt>
<trkpt lat="46.18013330" lon="7.57483330"><ele>1602</ele><time>2003-07-20T13:11:23Z</time></trkpt>
<trkpt lat="46.17930000" lon="7.57480000"><ele>1601</ele><time>2003-07-20T13:13:13Z</time></trkpt>
<trkpt lat="46.17893330" lon="7.57456670"><ele>1601</ele><time>2003-07-20T13:13:23Z</time></trkpt>
<trkpt lat="46.17841670" lon="7.57353330"><ele>1600</ele><time>2003-07-20T13:13:46Z</time></trkpt>
<trkpt lat="46.17816670" lon="7.57353330"><ele>1598</ele><time>2003-07-20T13:13:52Z</time></trkpt>
<trkpt lat="46.17750000" lon="7.57418330"><ele>1592</ele><time>2003-07-20T13:14:09Z</time></trkpt>
<trkpt lat="46.17681670" lon="7.57433330"><ele>1586</ele><time>2003-07-20T13:14:27Z</time></trkpt>
<trkpt lat="46.17513330" lon="7.57375000"><ele>1593</ele><time>2003-07-20T13:15:42Z</time></trkpt>
<trkpt lat="46.17593330" lon="7.57483330"><ele>1586</ele><time>2003-07-20T13:16:15Z</time></trkpt>
<trkpt lat="46.17735000" lon="7.57598330"><ele>1570</ele><time>2003-07-20T13:16:34Z</time></trkpt>
<trkpt lat="46.17818330" lon="7.57610000"><ele>1563</ele><time>2003-07-20T13:16:43Z</time></trkpt>
<trkpt lat="46.17893330" lon="7.57665000"><ele>1562</ele><time>2003-07-20T13:16:54Z</time></trkpt>
<trkpt lat="46.17946670" lon="7.57666670"><ele>1563</ele><time>2003-07-20T13:17:03Z</time></trkpt>
<trkpt lat="46.18005000" lon="7.57633330"><ele>1567</ele><time>2003-07-20T13:17:17Z</time></trkpt>
<trkpt lat="46.18056670" lon="7.57641670"><ele>1571</ele><time>2003-07-20T13:17:36Z</time></trkpt>
<trkpt lat="46.18000000" lon="7.57588330"><ele>1573</ele><time>2003-07-20T13:33:48Z</time></trkpt>
<trkpt lat="46.17918330" lon="7.57576670"><ele>1580</ele><time>2003-07-20T13:34:43Z</time></trkpt>
<trkpt lat="46.17873330" lon="7.57513330"><ele>1581</ele><time>2003-07-20T13:35:35Z</time></trkpt>
<trkpt lat="46.17940000" lon="7.57535000"><ele>1586</ele><time>2003-07-20T13:35:45Z</time></trkpt>
<trkpt lat="46.18026670" lon="7.57493330"><ele>1598</ele><time>2003-07-20T13:36:36Z</time></trkpt>
<trkpt lat="46.18086670" lon="7.57545000"><ele>1600</ele><time>2003-07-20T13:37:00Z</time></trkpt>
<trkpt lat="46.18160000" lon="7.57576670"><ele>1600</ele><time>2003-07-20T13:37:20Z</time></trkpt>
<trkpt lat="46.18228330" lon="7.57636670"><ele>1601</ele><time>2003-07-20T13:37:37Z</time></trkpt>
<trkpt lat="46.18380000" lon="7.57805000"><ele>1602</ele><time>2003-07-20T13:38:12Z</time></trkpt>
<trkpt lat="46.18436670" lon="7.57838330"><ele>1600</ele><time>2003-07-20T13:38:24Z</time></trkpt>
<trkpt lat="46.18476670" lon="7.57905000"><ele>1596</ele><time>2003-07-20T13:38:36Z</time></trkpt>
<trkpt lat="46.18565000" lon="7.57948330"><ele>1595</ele><time>2003-07-20T13:38:51Z</time></trkpt>
<trkpt lat="46.18598330" lon="7.57985000"><ele>1594</ele><time>2003-07-20T13:38:59Z</time></trkpt>
<trkpt lat="46.18643330" lon="7.57991670"><ele>1594</ele><time>2003-07-20T13:39:07Z</time></trkpt>
<trkpt lat="46.18678330" lon="7.57963330"><ele>1594</ele><time>2003-07-20T13:39:14Z</time></trkpt>
<trkpt lat="46.18931670" lon="7.57970000"><ele>1589</ele><time>2003-07-20T13:39:59Z</time></trkpt>
<trkpt lat="46.19148330" lon="7.57908330"><ele>1587</ele><time>2003-07-20T13:40:35Z</time></trkpt>
<trkpt lat="46.19226670" lon="7.57931670"><ele>1585</ele><time>2003-07-20T13:40:50Z</time></trkpt>
<trkpt lat="46.19328330" lon="7.57916670"><ele>1583</ele><time>2003-07-20T13:41:07Z</time></trkpt>
<trkpt lat="46.19473330" lon="7.57836670"><ele>1582</ele><time>2003-07-20T13:41:33Z</time></trkpt>
<trkpt lat="46.19481670" lon="7.57818330"><ele>1581</ele><time>2003-07-20T13:41:38Z</time></trkpt>
<trkpt lat="46.19481670" lon="7.57558330"><ele>1590</ele><time>2003-07-20T13:42:40Z</time></trkpt>
<trkpt lat="46.19496670" lon="7.57536670"><ele>1591</ele><time>2003-07-20T13:42:46Z</time></trkpt>
<trkpt lat="46.19633330" lon="7.57501670"><ele>1602</ele><time>2003-07-20T13:43:47Z</time></trkpt>
<trkpt lat="46.19673330" lon="7.57426670"><ele>1604</ele><time>2003-07-20T13:44:18Z</time></trkpt>
<trkpt lat="46.19721670" lon="7.57396670"><ele>1605</ele><time>2003-07-20T13:44:46Z</time></trkpt>
<trkpt lat="46.19788330" lon="7.57435000"><ele>1607</ele><time>2003-07-20T13:45:09Z</time></trkpt>
<trkpt lat="46.19833330" lon="7.57435000"><ele>1612</ele><time>2003-07-20T13:45:32Z</time></trkpt>
<trkpt lat="46.19843330" lon="7.57470000"><ele>1618</ele><time>2003-07-20T13:45:44Z</time></trkpt>
<trkpt lat="46.19918330" lon="7.57543330"><ele>1632</ele><time>2003-07-20T13:46:33Z</time></trkpt>
<trkpt lat="46.19970000" lon="7.57500000"><ele>1639</ele><time>2003-07-20T13:47:14Z</time></trkpt>
<trkpt lat="46.19990000" lon="7.57455000"><ele>1640</ele><time>2003-07-20T13:48:00Z</time></trkpt>
<trkpt lat="46.20050000" lon="7.57446670"><ele>1643</ele><time>2003-07-20T13:48:22Z</time></trkpt>
<trkpt lat="46.20071670" lon="7.57403330"><ele>1644</ele><time>2003-07-20T13:48:36Z</time></trkpt>
<trkpt lat="46.20138330" lon="7.57416670"><ele>1646</ele><time>2003-07-20T13:48:58Z</time></trkpt>
<trkpt lat="46.20236670" lon="7.57371670"><ele>1647</ele><time>2003-07-20T13:49:32Z</time></trkpt>
<trkpt lat="46.20291670" lon="7.57333330"><ele>1649</ele><time>2003-07-20T13:49:51Z</time></trkpt>
<trkpt lat="46.20350000" lon="7.57248330"><ele>1653</ele><time>2003-07-20T13:50:18Z</time></trkpt>
<trkpt lat="46.20388330" lon="7.57255000"><ele>1654</ele><time>2003-07-20T13:50:31Z</time></trkpt>
<trkpt lat="46.20491670" lon="7.57336670"><ele>1660</ele><time>2003-07-20T13:51:08Z</time></trkpt>
<trkpt lat="46.20535000" lon="7.57328330"><ele>1661</ele><time>2003-07-20T13:51:21Z</time></trkpt>
<trkpt lat="46.20603330" lon="7.57261670"><ele>1659</ele><time>2003-07-20T13:51:38Z</time></trkpt>
<trkpt lat="46.20680000" lon="7.57110000"><ele>1656</ele><time>2003-07-20T13:52:09Z</time></trkpt>
<trkpt lat="46.20691670" lon="7.56961670"><ele>1657</ele><time>2003-07-20T13:52:44Z</time></trkpt>
<trkpt lat="46.20726670" lon="7.56933330"><ele>1657</ele><time>2003-07-20T13:52:59Z</time></trkpt>
<trkpt lat="46.20773330" lon="7.56950000"><ele>1658</ele><time>2003-07-20T13:53:17Z</time></trkpt>
<trkpt lat="46.20873330" lon="7.57035000"><ele>1670</ele><time>2003-07-20T13:53:53Z</time></trkpt>
<trkpt lat="46.20903330" lon="7.56986670"><ele>1672</ele><time>2003-07-20T13:54:07Z</time></trkpt>
<trkpt lat="46.20991670" lon="7.56950000"><ele>1673</ele><time>2003-07-20T13:54:33Z</time></trkpt>
<trkpt lat="46.21028330" lon="7.56925000"><ele>1672</ele><time>2003-07-20T13:54:41Z</time></trkpt>
<trkpt lat="46.21081670" lon="7.56853330"><ele>1673</ele><time>2003-07-20T13:54:55Z</time></trkpt>
<trkpt lat="46.21131670" lon="7.56836670"><ele>1670</ele><time>2003-07-20T13:55:04Z</time></trkpt>
<trkpt lat="46.21266670" lon="7.56688330"><ele>1668</ele><time>2003-07-20T13:55:28Z</time></trkpt>
<trkpt lat="46.21381670" lon="7.56588330"><ele>1664</ele><time>2003-07-20T13:55:49Z</time></trkpt>
<trkpt lat="46.21395000" lon="7.56506670"><ele>1660</ele><time>2003-07-20T13:56:00Z</time></trkpt>
<trkpt lat="46.21433330" lon="7.56410000"><ele>1658</ele><time>2003-07-20T13:56:23Z</time></trkpt>
<trkpt lat="46.21478330" lon="7.56363330"><ele>1660</ele><time>2003-07-20T13:56:55Z</time></trkpt>
<trkpt lat="46.21493330" lon="7.56315000"><ele>1660</ele><time>2003-07-20T13:57:09Z</time></trkpt>
<trkpt lat="46.21536670" lon="7.56260000"><ele>1661</ele><time>2003-07-20T13:57:27Z</time></trkpt>
<trkpt lat="46.21581670" lon="7.56165000"><ele>1664</ele><time>2003-07-20T13:57:52Z</time></trkpt>
<trkpt lat="46.21598330" lon="7.55963330"><ele>1665</ele><time>2003-07-20T13:58:37Z</time></trkpt>
<trkpt lat="46.21710000" lon="7.56013330"><ele>1668</ele><time>2003-07-20T13:59:04Z</time></trkpt>
<trkpt lat="46.21751670" lon="7.56053330"><ele>1668</ele><time>2003-07-20T13:59:14Z</time></trkpt>
<trkpt lat="46.21773330" lon="7.56046670"><ele>1666</ele><time>2003-07-20T13:59:19Z</time></trkpt>
<trkpt lat="46.21765000" lon="7.56020000"><ele>1666</ele><time>2003-07-20T13:59:24Z</time></trkpt>
<trkpt lat="46.21851670" lon="7.55945000"><ele>1661</ele><time>2003-07-20T13:59:46Z</time></trkpt>
<trkpt lat="46.21921670" lon="7.56001670"><ele>1660</ele><time>2003-07-20T14:00:04Z</time></trkpt>
<trkpt lat="46.22060000" lon="7.56043330"><ele>1666</ele><time>2003-07-20T14:00:56Z</time></trkpt>
<trkpt lat="46.22123330" lon="7.56096670"><ele>1670</ele><time>2003-07-20T14:01:33Z</time></trkpt>
<trkpt lat="46.22176670" lon="7.56071670"><ele>1671</ele><time>2003-07-20T14:01:59Z</time></trkpt>
<trkpt lat="46.22255000" lon="7.56073330"><ele>1678</ele><time>2003-07-20T14:02:38Z</time></trkpt>
<trkpt lat="46.22320000" lon="7.55993330"><ele>1679</ele><time>2003-07-20T14:03:17Z</time></trkpt>
<trkpt lat="46.22388330" lon="7.55996670"><ele>1684</ele><time>2003-07-20T14:03:47Z</time></trkpt>
<trkpt lat="46.22430000" lon="7.55965000"><ele>1687</ele><time>2003-07-20T14:04:04Z</time></trkpt>
<trkpt lat="46.22496670" lon="7.55790000"><ele>1697</ele><time>2003-07-20T14:05:01Z</time></trkpt>
<trkpt lat="46.22551670" lon="7.55796670"><ele>1699</ele><time>2003-07-20T14:05:22Z</time></trkpt>
<trkpt lat="46.22588330" lon="7.55778330"><ele>1701</ele><time>2003-07-20T14:05:38Z</time></trkpt>
<trkpt lat="46.22603330" lon="7.55751670"><ele>1702</ele><time>2003-07-20T14:05:50Z</time></trkpt>
<trkpt lat="46.22601670" lon="7.55453330"><ele>1717</ele><time>2003-07-20T14:07:28Z</time></trkpt>
<trkpt lat="46.22623330" lon="7.55341670"><ele>1717</ele><time>2003-07-20T14:08:05Z</time></trkpt>
<trkpt lat="46.22670000" lon="7.55246670"><ele>1718</ele><time>2003-07-20T14:08:29Z</time></trkpt>
<trkpt lat="46.22703330" lon="7.55135000"><ele>1718</ele><time>2003-07-20T14:08:49Z</time></trkpt>
<trkpt lat="46.22738330" lon="7.55128330"><ele>1718</ele><time>2003-07-20T14:08:57Z</time></trkpt>
<trkpt lat="46.22953330" lon="7.55221670"><ele>1718</ele><time>2003-07-20T14:09:52Z</time></trkpt>
<trkpt lat="46.23015000" lon="7.55165000"><ele>1717</ele><time>2003-07-20T14:10:25Z</time></trkpt>
<trkpt lat="46.23088330" lon="7.55221670"><ele>1716</ele><time>2003-07-20T14:10:49Z</time></trkpt>
<trkpt lat="46.23170000" lon="7.55180000"><ele>1714</ele><time>2003-07-20T14:11:11Z</time></trkpt>
<trkpt lat="46.23208330" lon="7.55193330"><ele>1714</ele><time>2003-07-20T14:11:18Z</time></trkpt>
<trkpt lat="46.23236670" lon="7.55215000"><ele>1712</ele><time>2003-07-20T14:11:23Z</time></trkpt>
<trkpt lat="46.23263330" lon="7.55263330"><ele>1709</ele><time>2003-07-20T14:11:31Z</time></trkpt>
<trkpt lat="46.23258330" lon="7.55313330"><ele>1708</ele><time>2003-07-20T14:11:44Z</time></trkpt>
<trkpt lat="46.23321670" lon="7.55445000"><ele>1707</ele><time>2003-07-20T14:12:10Z</time></trkpt>
<trkpt lat="46.23531670" lon="7.55646670"><ele>1690</ele><time>2003-07-20T14:13:00Z</time></trkpt>
<trkpt lat="46.23610000" lon="7.55695000"><ele>1678</ele><time>2003-07-20T14:13:18Z</time></trkpt>
<trkpt lat="46.23775000" lon="7.55626670"><ele>1666</ele><time>2003-07-20T14:13:48Z</time></trkpt>
<trkpt lat="46.23836670" lon="7.55635000"><ele>1664</ele><time>2003-07-20T14:13:58Z</time></trkpt>
<trkpt lat="46.23925000" lon="7.55590000"><ele>1662</ele><time>2003-07-20T14:14:16Z</time></trkpt>
<trkpt lat="46.24095000" lon="7.55381670"><ele>1657</ele><time>2003-07-20T14:14:48Z</time></trkpt>
<trkpt lat="46.24235000" lon="7.55275000"><ele>1652</ele><time>2003-07-20T14:15:11Z</time></trkpt>
<trkpt lat="46.24230000" lon="7.55178330"><ele>1651</ele><time>2003-07-20T14:15:24Z</time></trkpt>
<trkpt lat="46.24248330" lon="7.55075000"><ele>1650</ele><time>2003-07-20T14:15:39Z</time></trkpt>
<trkpt lat="46.24173330" lon="7.54963330"><ele>1644</ele><time>2003-07-20T14:15:56Z</time></trkpt>
<trkpt lat="46.24176670" lon="7.54826670"><ele>1643</ele><time>2003-07-20T14:16:11Z</time></trkpt>
<trkpt lat="46.24126670" lon="7.54631670"><ele>1636</ele><time>2003-07-20T14:16:34Z</time></trkpt>
<trkpt lat="46.23985000" lon="7.54616670"><ele>1625</ele><time>2003-07-20T14:16:56Z</time></trkpt>
<trkpt lat="46.23886670" lon="7.54505000"><ele>1618</ele><time>2003-07-20T14:17:14Z</time></trkpt>
<trkpt lat="46.23833330" lon="7.54243330"><ele>1618</ele><time>2003-07-20T14:17:40Z</time></trkpt>
<trkpt lat="46.23871670" lon="7.54155000"><ele>1612</ele><time>2003-07-20T14:17:50Z</time></trkpt>
<trkpt lat="46.23858330" lon="7.54028330"><ele>1609</ele><time>2003-07-20T14:18:03Z</time></trkpt>
<trkpt lat="46.24000000" lon="7.53795000"><ele>1599</ele><time>2003-07-20T14:18:39Z</time></trkpt>
<trkpt lat="46.24063330" lon="7.53766670"><ele>1598</ele><time>2003-07-20T14:18:51Z</time></trkpt>
<trkpt lat="46.24161670" lon="7.53758330"><ele>1597</ele><time>2003-07-20T14:19:08Z</time></trkpt>
<trkpt lat="46.24186670" lon="7.53720000"><ele>1597</ele><time>2003-07-20T14:19:15Z</time></trkpt>
<trkpt lat="46.24208330" lon="7.53716670"><ele>1597</ele><time>2003-07-20T14:19:19Z</time></trkpt>
<trkpt lat="46.24455000" lon="7.53893330"><ele>1594</ele><time>2003-07-20T14:20:10Z</time></trkpt>
<trkpt lat="46.24515000" lon="7.53848330"><ele>1589</ele><time>2003-07-20T14:20:21Z</time></trkpt>
<trkpt lat="46.24600000" lon="7.53751670"><ele>1583</ele><time>2003-07-20T14:20:37Z</time></trkpt>
<trkpt lat="46.24788330" lon="7.53640000"><ele>1577</ele><time>2003-07-20T14:21:05Z</time></trkpt>
<trkpt lat="46.24811670" lon="7.53608330"><ele>1573</ele><time>2003-07-20T14:21:11Z</time></trkpt>
<trkpt lat="46.24806670" lon="7.53541670"><ele>1567</ele><time>2003-07-20T14:21:19Z</time></trkpt>
<trkpt lat="46.24911670" lon="7.53036670"><ele>1546</ele><time>2003-07-20T14:22:13Z</time></trkpt>
<trkpt lat="46.24938330" lon="7.52685000"><ele>1528</ele><time>2003-07-20T14:22:47Z</time></trkpt>
<trkpt lat="46.24938330" lon="7.52401670"><ele>1516</ele><time>2003-07-20T14:23:11Z</time></trkpt>
<trkpt lat="46.24933330" lon="7.52356670"><ele>1516</ele><time>2003-07-20T14:23:15Z</time></trkpt>
<trkpt lat="46.24853330" lon="7.52316670"><ele>1512</ele><time>2003-07-20T14:23:29Z</time></trkpt>
<trkpt lat="46.24841670" lon="7.52260000"><ele>1512</ele><time>2003-07-20T14:23:36Z</time></trkpt>
<trkpt lat="46.24783330" lon="7.52201670"><ele>1507</ele><time>2003-07-20T14:23:47Z</time></trkpt>
<trkpt lat="46.24783330" lon="7.52190000"><ele>1506</ele><time>2003-07-20T14:23:53Z</time></trkpt>
<trkpt lat="46.24918330" lon="7.52231670"><ele>1501</ele><time>2003-07-20T14:24:26Z</time></trkpt>
<trkpt lat="46.25066670" lon="7.52238330"><ele>1491</ele><time>2003-07-20T14:24:43Z</time></trkpt>
<trkpt lat="46.25096670" lon="7.52261670"><ele>1481</ele><time>2003-07-20T14:24:47Z</time></trkpt>
<trkpt lat="46.25173330" lon="7.52423330"><ele>1413</ele><time>2003-07-20T14:25:02Z</time></trkpt>
<trkpt lat="46.25228330" lon="7.52728330"><ele>1385</ele><time>2003-07-20T14:25:23Z</time></trkpt>
<trkpt lat="46.25281670" lon="7.52753330"><ele>1379</ele><time>2003-07-20T14:25:31Z</time></trkpt>
<trkpt lat="46.25321670" lon="7.52836670"><ele>1372</ele><time>2003-07-20T14:25:42Z</time></trkpt>
<trkpt lat="46.25373330" lon="7.52855000"><ele>1368</ele><time>2003-07-20T14:25:49Z</time></trkpt>
<trkpt lat="46.25418330" lon="7.52955000"><ele>1357</ele><time>2003-07-20T14:26:02Z</time></trkpt>
<trkpt lat="46.25483330" lon="7.53021670"><ele>1347</ele><time>2003-07-20T14:26:12Z</time></trkpt>
<trkpt lat="46.25513330" lon="7.53021670"><ele>1343</ele><time>2003-07-20T14:26:17Z</time></trkpt>
<trkpt lat="46.25558330" lon="7.52926670"><ele>1334</ele><time>2003-07-20T14:26:28Z</time></trkpt>
<trkpt lat="46.25658330" lon="7.52938330"><ele>1326</ele><time>2003-07-20T14:26:55Z</time></trkpt>
<trkpt lat="46.25666670" lon="7.52915000"><ele>1325</ele><time>2003-07-20T14:27:00Z</time></trkpt>
<trkpt lat="46.25646670" lon="7.52665000"><ele>1318</ele><time>2003-07-20T14:27:39Z</time></trkpt>
<trkpt lat="46.25575000" lon="7.52683330"><ele>1315</ele><time>2003-07-20T14:27:55Z</time></trkpt>
</trkseg></trk></gpx>